Time;durP1;ratioP1;P1;durP2;ratioP2;P2;SDS_P1;SDS_P2;PMS_P1;PMS_P2;Temp;Humidity;BMP_temperature;BMP_pressure;BME280_temperature;BME280_humidity;BME280_pressure;Samples;Min_cycle;Max_cycle;Signal;HPM_P1;HPM_P2
2023/01/18 00:01:28;;;;;;;5.47;4.43;;;;;;;-0.15;94.96;92603.84;4918140;29;20196;-82
2023/01/18 00:03:53;;;;;;;5.17;3.83;;;;;;;-0.17;94.73;92603.22;4923188;29;20198;-81
2023/01/18 00:06:19;;;;;;;5.17;3.90;;;;;;;-0.13;94.87;92598.59;4933886;29;20269;-80
2023/01/18 00:08:44;;;;;;;6.13;4.70;;;;;;;-0.10;94.17;92598.28;4924754;29;20657;-80
2023/01/18 00:11:12;;;;;;;5.53;4.47;;;;;;;-0.08;94.42;92592.09;4926829;29;20276;-80
2023/01/18 00:13:37;;;;;;;7.70;6.23;;;;;;;-0.14;94.20;92597.81;4926902;29;20202;-81
2023/01/18 00:16:11;;;;;;;7.77;5.87;;;;;;;-0.12;94.93;92595.88;4934520;29;20212;-82
2023/01/18 00:18:36;;;;;;;6.10;4.57;;;;;;;-0.09;94.57;92597.31;4937429;29;20197;-82
2023/01/18 00:21:06;;;;;;;5.47;4.63;;;;;;;-0.29;95.23;92600.13;4939935;29;20534;-80
2023/01/18 00:23:32;;;;;;;5.80;4.97;;;;;;;-0.23;95.04;92601.28;4920140;29;20269;-80
2023/01/18 00:26:01;;;;;;;5.60;4.70;;;;;;;-0.13;95.18;92608.81;4914755;29;20205;-81
2023/01/18 00:28:27;;;;;;;6.03;5.03;;;;;;;-0.36;96.43;92611.91;4923563;29;20299;-80
2023/01/18 00:30:52;;;;;;;5.73;4.80;;;;;;;-0.20;96.26;92608.63;4933038;29;20268;-81
2023/01/18 00:33:17;;;;;;;6.93;5.80;;;;;;;-0.20;95.79;92610.38;4919054;29;20209;-81
2023/01/18 00:35:43;;;;;;;8.20;6.63;;;;;;;-0.15;96.11;92613.25;4922462;29;20201;-81
2023/01/18 00:38:12;;;;;;;8.60;6.07;;;;;;;-0.11;95.81;92612.00;4915440;29;20258;-80
2023/01/18 00:40:37;;;;;;;7.77;5.93;;;;;;;-0.09;95.42;92604.97;4936842;29;20220;-81
2023/01/18 00:45:47;;;;;;;8.30;5.83;;;;;;;-0.30;96.74;92608.75;4923074;29;20277;-80
2023/01/18 00:48:12;;;;;;;8.97;6.37;;;;;;;-0.27;96.25;92602.53;4927317;29;20665;-81
2023/01/18 00:50:37;;;;;;;9.17;5.83;;;;;;;-0.77;99.02;92608.38;4933176;29;20225;-80
2023/01/18 00:53:03;;;;;;;7.77;6.43;;;;;;;-0.45;98.21;92604.38;4922772;29;20195;-80
2023/01/18 00:55:28;;;;;;;7.87;6.83;;;;;;;-0.34;97.12;92601.56;4922795;29;20224;-79
2023/01/18 00:57:53;;;;;;;7.87;6.00;;;;;;;-0.55;97.11;92604.50;4930135;29;20639;-79
2023/01/18 01:00:25;;;;;;;7.63;5.93;;;;;;;-0.37;96.87;92609.50;4919623;29;20300;-80
2023/01/18 01:02:51;;;;;;;7.20;6.07;;;;;;;-0.54;97.78;92616.28;4916497;29;20276;-80
2023/01/18 01:08:04;;;;;;;6.87;5.37;;;;;;;-0.47;97.30;92612.19;4917715;29;20205;-81
2023/01/18 01:10:30;;;;;;;8.03;6.13;;;;;;;-0.52;97.56;92616.97;4936265;29;20220;-81
2023/01/18 01:26:35;;;;;;;11.47;6.50;;;;;;;-0.62;98.96;92623.91;4937619;29;20216;-80
2023/01/18 01:29:00;;;;;;;7.73;5.63;;;;;;;-0.44;97.71;92627.19;4930406;29;20221;-81
2023/01/18 01:31:26;;;;;;;6.00;5.00;;;;;;;-0.39;97.17;92627.50;4933148;29;20254;-80
2023/01/18 01:33:51;;;;;;;7.20;5.77;;;;;;;-0.34;96.66;92627.88;4921402;29;20213;-81
2023/01/18 01:36:19;;;;;;;8.40;5.70;;;;;;;-0.34;96.36;92635.50;4941377;29;20182;-81
2023/01/18 01:38:44;;;;;;;6.50;5.67;;;;;;;-0.35;96.53;92633.91;4930305;29;20696;-80
2023/01/18 01:41:14;;;;;;;8.37;6.17;;;;;;;-0.32;96.34;92631.06;4939743;29;20205;-80
2023/01/18 01:43:44;;;;;;;7.30;6.13;;;;;;;-0.39;96.43;92629.28;4939384;29;20197;-80
2023/01/18 01:46:37;;;;;;;10.07;7.00;;;;;;;-0.26;96.02;92634.75;4928673;29;20216;-80
2023/01/18 01:49:03;;;;;;;12.13;7.60;;;;;;;-0.23;96.54;92638.75;4937118;29;20227;-81
2023/01/18 01:51:28;;;;;;;12.57;6.87;;;;;;;-0.31;96.67;92647.16;4924609;29;20185;-80
2023/01/18 01:53:54;;;;;;;10.67;8.13;;;;;;;-0.19;96.74;92645.13;4933706;29;20307;-80
2023/01/18 01:56:20;;;;;;;10.17;6.70;;;;;;;-0.21;96.49;92652.94;4944556;29;20207;-80
2023/01/18 01:58:50;;;;;;;10.20;7.93;;;;;;;-0.09;96.16;92646.63;4917866;29;20658;-80
2023/01/18 02:01:16;;;;;;;13.10;9.30;;;;;;;-0.22;96.84;92655.63;4931083;29;20565;-80
2023/01/18 02:03:41;;;;;;;46.07;13.33;;;;;;;-0.31;96.95;92653.06;4912746;29;20211;-80
2023/01/18 02:06:15;;;;;;;24.83;11.93;;;;;;;-0.27;97.33;92650.97;4920108;29;20202;-80
2023/01/18 02:08:42;;;;;;;19.80;11.70;;;;;;;-0.18;97.57;92659.47;4921509;29;20206;-80
2023/01/18 02:11:07;;;;;;;15.90;11.03;;;;;;;-0.20;97.43;92659.63;4925632;29;20197;-80
2023/01/18 02:13:32;;;;;;;14.30;10.07;;;;;;;-0.20;97.41;92661.38;4937914;29;20250;-80
2023/01/18 02:16:12;;;;;;;13.53;10.70;;;;;;;-0.11;97.32;92665.56;4936013;29;20662;-80
2023/01/18 02:18:57;;;;;;;54.73;12.93;;;;;;;-0.13;97.62;92670.81;4924776;29;20189;-80
2023/01/18 02:21:32;;;;;;;206.67;19.87;;;;;;;-0.50;98.67;92677.97;4912693;29;20540;-80
2023/01/18 02:24:16;;;;;;;80.53;14.63;;;;;;;-0.36;99.26;92678.19;4921153;29;20197;-80
2023/01/18 02:26:51;;;;;;;144.47;18.67;;;;;;;-0.37;98.95;92681.69;4943096;29;20380;-81
2023/01/18 02:29:28;;;;;;;91.23;14.37;;;;;;;-0.40;98.69;92683.75;4941691;29;20236;-81
2023/01/18 02:32:14;;;;;;;76.07;13.60;;;;;;;-0.39;98.44;92691.25;4939439;29;20198;-80
2023/01/18 02:34:43;;;;;;;98.20;14.37;;;;;;;-0.58;98.91;92691.47;4939840;29;20193;-80
2023/01/18 02:37:41;;;;;;;55.43;12.90;;;;;;;-0.57;99.53;92690.53;4941735;29;20194;-80
2023/01/18 02:40:09;;;;;;;94.00;13.60;;;;;;;-0.93;100.00;92697.47;4939197;29;20321;-80
2023/01/18 02:48:31;;;;;;;17.73;11.83;;;;;;;-0.45;98.82;92691.84;4926290;29;20259;-80
2023/01/18 02:50:56;;;;;;;98.37;14.43;;;;;;;-0.50;98.13;92694.06;4938768;29;20205;-80
2023/01/18 02:53:21;;;;;;;71.83;14.53;;;;;;;-0.67;98.90;92690.63;4943298;28;20205;-81
2023/01/18 02:55:47;;;;;;;23.10;11.43;;;;;;;-0.53;99.30;92696.09;4935301;29;20201;-80
2023/01/18 02:58:24;;;;;;;31.83;11.47;;;;;;;-0.55;99.03;92701.34;4951544;29;20680;-81
2023/01/18 03:00:56;;;;;;;89.67;14.47;;;;;;;-0.66;98.73;92691.44;4943254;29;20279;-80
2023/01/18 03:03:22;;;;;;;51.07;11.93;;;;;;;-0.79;100.00;92693.59;4933744;29;20201;-81
2023/01/18 03:05:49;;;;;;;31.10;13.93;;;;;;;-0.74;100.00;92704.91;4936566;29;20240;-81
2023/01/18 03:08:32;;;;;;;88.83;14.93;;;;;;;-0.78;100.00;92710.47;4934378;29;20198;-81
2023/01/18 03:11:11;;;;;;;26.73;11.70;;;;;;;-0.67;100.00;92707.66;4934710;29;21113;-81
2023/01/18 03:13:47;;;;;;;41.07;12.67;;;;;;;-0.67;99.86;92710.22;4919443;29;20220;-80
2023/01/18 03:16:20;;;;;;;147.83;17.47;;;;;;;-0.75;99.88;92710.97;4930862;29;20222;-81
2023/01/18 03:19:00;;;;;;;35.63;10.47;;;;;;;-0.72;100.00;92715.75;4931822;29;20572;-81
2023/01/18 03:21:33;;;;;;;122.27;15.63;;;;;;;-0.82;100.00;92719.34;4930420;29;20680;-80
2023/01/18 03:24:01;;;;;;;30.63;11.50;;;;;;;-0.68;100.00;92722.16;4931714;29;20213;-80
2023/01/18 03:26:27;;;;;;;25.13;10.80;;;;;;;-0.68;100.00;92721.38;4938574;29;20801;-81
2023/01/18 03:34:30;;;;;;;14.07;8.50;;;;;;;-0.86;100.00;92718.84;4935697;29;20216;-81
2023/01/18 03:36:58;;;;;;;28.77;9.20;;;;;;;-0.80;100.00;92725.88;4942828;29;20245;-80
2023/01/18 03:39:27;;;;;;;18.80;9.73;;;;;;;-0.75;100.00;92725.44;4930919;29;20210;-81
2023/01/18 03:41:56;;;;;;;13.73;9.50;;;;;;;-0.63;100.00;92721.69;4921184;29;20193;-81
2023/01/18 03:44:33;;;;;;;68.13;12.97;;;;;;;-0.72;100.00;92727.69;4916285;29;20235;-81
2023/01/18 03:46:59;;;;;;;49.40;11.20;;;;;;;-0.74;100.00;92720.19;4938385;29;20225;-81
2023/01/18 03:49:26;;;;;;;62.47;11.77;;;;;;;-0.71;100.00;92729.28;4945461;29;20308;-81
2023/01/18 03:51:58;;;;;;;127.27;15.03;;;;;;;-0.80;100.00;92733.53;4921640;29;20197;-80
2023/01/18 03:54:38;;;;;;;144.87;16.57;;;;;;;-0.95;100.00;92730.72;4923679;29;20201;-81
2023/01/18 03:57:26;;;;;;;45.00;10.90;;;;;;;-0.85;100.00;92735.72;4930515;29;20193;-81
2023/01/18 03:59:51;;;;;;;358.70;26.83;;;;;;;-1.06;100.00;92736.06;4939103;29;20264;-81
2023/01/18 04:02:17;;;;;;;76.53;12.07;;;;;;;-0.86;100.00;92742.56;4922346;29;20572;-81
2023/01/18 04:04:43;;;;;;;269.60;21.87;;;;;;;-0.96;100.00;92738.53;4915528;29;20658;-81
2023/01/18 04:07:08;;;;;;;168.10;18.90;;;;;;;-0.79;100.00;92745.34;4918109;29;20213;-80
2023/01/18 04:09:34;;;;;;;22.43;8.47;;;;;;;-0.72;100.00;92751.41;4920594;29;20226;-80
2023/01/18 04:11:59;;;;;;;28.07;11.13;;;;;;;-0.74;100.00;92762.72;4922496;29;20212;-81
2023/01/18 04:14:24;;;;;;;51.23;10.37;;;;;;;-0.98;100.00;92761.56;4917530;29;20205;-81
2023/01/18 04:16:49;;;;;;;13.20;8.67;;;;;;;-0.92;100.00;92761.00;4929006;29;20201;-80
2023/01/18 04:19:16;;;;;;;26.53;13.50;;;;;;;-0.81;100.00;92771.91;4922293;29;20224;-81
2023/01/18 04:21:41;;;;;;;39.40;12.93;;;;;;;-0.87;100.00;92776.66;4930335;29;20281;-81
2023/01/18 04:24:06;;;;;;;41.00;10.63;;;;;;;-1.01;100.00;92777.16;4918602;29;20248;-81
2023/01/18 04:26:34;;;;;;;109.37;13.67;;;;;;;-1.30;100.00;92790.09;4937915;29;20217;-80
2023/01/18 04:29:00;;;;;;;124.97;15.73;;;;;;;-1.05;100.00;92798.78;4936717;29;20241;-80
2023/01/18 04:31:25;;;;;;;79.37;13.00;;;;;;;-1.03;100.00;92798.63;4924662;29;20192;-81
2023/01/18 04:33:51;;;;;;;38.87;9.60;;;;;;;-0.96;100.00;92795.34;4918697;29;20202;-80
2023/01/18 04:36:20;;;;;;;292.97;22.30;;;;;;;-1.15;100.00;92801.41;4921675;29;20197;-80
2023/01/18 04:38:45;;;;;;;68.17;10.40;;;;;;;-0.99;100.00;92794.84;4923060;29;20245;-80
2023/01/18 04:41:10;;;;;;;155.93;16.03;;;;;;;-1.11;100.00;92790.91;4937447;29;20202;-80
2023/01/18 04:43:36;;;;;;;16.63;8.60;;;;;;;-1.07;100.00;92797.31;4921340;29;20189;-79
2023/01/18 04:46:01;;;;;;;13.10;8.23;;;;;;;-1.05;100.00;92803.88;4940903;29;20811;-80
2023/01/18 04:48:26;;;;;;;11.27;7.87;;;;;;;-1.02;100.00;92801.03;4940329;29;20250;-80
2023/01/18 04:50:52;;;;;;;14.53;7.20;;;;;;;-1.17;100.00;92815.19;4922119;29;20245;-80
2023/01/18 04:53:17;;;;;;;9.70;7.13;;;;;;;-1.03;100.00;92814.72;4926972;29;20194;-80
2023/01/18 04:55:43;;;;;;;11.20;6.80;;;;;;;-1.09;100.00;92819.56;4946383;29;20273;-79
2023/01/18 04:58:09;;;;;;;106.23;12.77;;;;;;;-1.20;100.00;92833.31;4920527;29;20186;-80
2023/01/18 05:00:38;;;;;;;17.87;9.10;;;;;;;-0.95;100.00;92832.63;4926977;29;20215;-80
2023/01/18 05:03:03;;;;;;;41.40;11.33;;;;;;;-1.05;100.00;92834.44;4918485;29;20652;-80
2023/01/18 05:05:28;;;;;;;14.53;9.57;;;;;;;-0.97;100.00;92844.72;4919483;29;20245;-79
2023/01/18 05:07:54;;;;;;;25.97;10.33;;;;;;;-0.93;100.00;92846.00;4926223;29;20208;-80
2023/01/18 05:10:19;;;;;;;190.23;22.73;;;;;;;-1.22;100.00;92853.03;4927999;29;20236;-80
2023/01/18 05:12:44;;;;;;;17.33;10.70;;;;;;;-1.12;100.00;92861.41;4932810;29;20227;-80
2023/01/18 05:15:09;;;;;;;18.10;11.47;;;;;;;-1.04;100.00;92869.16;4943416;29;20256;-80
2023/01/18 05:17:35;;;;;;;15.70;11.53;;;;;;;-0.91;100.00;92868.78;4927130;29;20186;-79
2023/01/18 05:20:02;;;;;;;14.43;10.80;;;;;;;-0.91;100.00;92874.69;4941690;29;20214;-80
2023/01/18 05:22:27;;;;;;;15.80;10.83;;;;;;;-0.91;100.00;92879.78;4918957;29;20225;-80
2023/01/18 05:24:54;;;;;;;14.07;10.03;;;;;;;-0.98;100.00;92883.03;4928843;29;20228;-79
2023/01/18 05:27:19;;;;;;;13.27;9.70;;;;;;;-0.96;100.00;92887.06;4926310;29;20209;-80
2023/01/18 05:29:47;;;;;;;13.90;10.00;;;;;;;-1.11;100.00;92888.47;4928369;29;20249;-80
2023/01/18 05:32:12;;;;;;;13.90;10.60;;;;;;;-1.02;100.00;92897.03;4919601;29;20727;-80
2023/01/18 05:34:37;;;;;;;15.30;11.37;;;;;;;-1.04;100.00;92904.81;4921636;29;20194;-79
2023/01/18 05:37:03;;;;;;;17.20;12.27;;;;;;;-1.12;100.00;92909.81;4923140;29;20202;-80
2023/01/18 05:39:29;;;;;;;15.23;10.60;;;;;;;-1.07;100.00;92920.34;4918223;29;20301;-79
2023/01/18 05:41:54;;;;;;;13.80;10.60;;;;;;;-1.05;99.75;92920.25;4925889;29;20197;-80
2023/01/18 05:44:19;;;;;;;14.77;10.57;;;;;;;-1.01;100.00;92919.78;4942097;29;20197;-79
2023/01/18 05:46:44;;;;;;;14.83;11.23;;;;;;;-0.99;99.45;92928.09;4929661;29;20216;-80
2023/01/18 05:49:10;;;;;;;16.00;11.33;;;;;;;-1.02;99.62;92930.13;4933882;29;20222;-79
2023/01/18 05:51:35;;;;;;;11.43;9.07;;;;;;;-1.24;100.00;92928.75;4926341;29;20202;-80
2023/01/18 05:54:00;;;;;;;13.83;10.10;;;;;;;-1.12;100.00;92937.81;4941408;29;20848;-80
2023/01/18 05:56:26;;;;;;;12.50;9.90;;;;;;;-1.10;100.00;92946.13;4917750;29;20229;-79
2023/01/18 05:58:51;;;;;;;13.33;9.87;;;;;;;-1.12;100.00;92942.91;4938122;29;20221;-79
2023/01/18 06:01:16;;;;;;;14.67;11.07;;;;;;;-1.20;100.00;92945.38;4927269;29;20195;-80
2023/01/18 06:03:42;;;;;;;17.47;12.00;;;;;;;-1.21;100.00;92959.03;4908249;29;20559;-79
2023/01/18 06:06:07;;;;;;;17.93;12.07;;;;;;;-1.22;100.00;92963.34;4918587;29;20224;-79
2023/01/18 06:08:33;;;;;;;17.27;12.10;;;;;;;-1.17;100.00;92976.44;4921219;29;20921;-80
2023/01/18 06:10:59;;;;;;;17.47;12.50;;;;;;;-1.28;100.00;92975.81;4941595;29;20193;-79
2023/01/18 06:13:29;;;;;;;19.87;12.03;;;;;;;-1.26;100.00;92984.91;4919861;29;20193;-79
2023/01/18 06:15:55;;;;;;;20.80;12.77;;;;;;;-1.19;100.00;92991.06;4918999;29;20216;-78
2023/01/18 06:18:21;;;;;;;39.30;16.17;;;;;;;-1.10;100.00;92997.06;4928100;29;20190;-79
2023/01/18 06:20:46;;;;;;;31.73;15.37;;;;;;;-1.08;100.00;92999.47;4924854;29;20224;-79
2023/01/18 06:23:12;;;;;;;27.50;13.07;;;;;;;-1.14;100.00;93011.03;4935390;29;20229;-79
2023/01/18 06:25:37;;;;;;;30.40;14.13;;;;;;;-1.06;100.00;93016.22;4917216;29;20310;-80
2023/01/18 06:28:04;;;;;;;23.10;14.60;;;;;;;-1.18;100.00;93020.66;4928633;29;20201;-79
2023/01/18 06:30:30;;;;;;;16.80;12.13;;;;;;;-1.19;100.00;93019.06;4922973;29;20226;-78
2023/01/18 06:32:55;;;;;;;32.67;14.80;;;;;;;-1.40;100.00;93030.41;4925050;29;20305;-78
2023/01/18 06:35:20;;;;;;;28.33;13.77;;;;;;;-1.40;100.00;93033.75;4933966;29;20268;-77
2023/01/18 06:37:46;;;;;;;20.23;13.20;;;;;;;-1.25;100.00;93034.09;4927846;29;20272;-79
2023/01/18 06:40:12;;;;;;;19.57;14.40;;;;;;;-1.31;100.00;93039.75;4919761;29;20221;-80
2023/01/18 06:42:37;;;;;;;15.10;11.83;;;;;;;-1.20;100.00;93034.50;4921057;29;20189;-80
2023/01/18 06:45:03;;;;;;;18.63;13.53;;;;;;;-1.35;100.00;93041.75;4943788;29;20252;-79
2023/01/18 06:47:28;;;;;;;14.90;11.33;;;;;;;-1.31;100.00;93047.41;4927976;29;20814;-81
2023/01/18 06:49:55;;;;;;;16.37;11.83;;;;;;;-1.27;99.21;93053.81;4925446;29;20217;-80
2023/01/18 06:52:20;;;;;;;25.73;14.10;;;;;;;-1.56;100.00;93057.22;4925096;29;20198;-80
2023/01/18 06:54:46;;;;;;;24.53;15.30;;;;;;;-1.57;100.00;93054.81;4935936;29;20200;-79
2023/01/18 06:57:11;;;;;;;25.67;15.17;;;;;;;-1.50;100.00;93061.75;4937484;29;20192;-79
2023/01/18 06:59:37;;;;;;;18.93;14.57;;;;;;;-1.52;100.00;93061.06;4927815;29;20369;-78
2023/01/18 07:02:03;;;;;;;22.17;14.43;;;;;;;-1.64;100.00;93072.34;4946679;29;20186;-80
2023/01/18 07:04:29;;;;;;;19.60;14.13;;;;;;;-1.53;100.00;93077.28;4927079;29;20185;-81
2023/01/18 07:06:54;;;;;;;20.30;14.67;;;;;;;-1.46;100.00;93086.00;4926458;29;20205;-81
2023/01/18 07:09:19;;;;;;;18.40;14.73;;;;;;;-1.51;99.45;93084.78;4944699;29;20232;-79
2023/01/18 07:11:45;;;;;;;21.53;13.90;;;;;;;-1.68;99.87;93088.81;4930431;29;20207;-78
2023/01/18 07:14:11;;;;;;;19.63;13.73;;;;;;;-1.74;100.00;93100.34;4917689;29;20646;-79
2023/01/18 07:16:37;;;;;;;18.03;12.83;;;;;;;-1.64;99.81;93100.34;4925783;29;20279;-79
2023/01/18 07:19:03;;;;;;;15.37;11.47;;;;;;;-1.63;99.47;93111.31;4923696;29;20233;-80
2023/01/18 07:21:29;;;;;;;20.60;13.10;;;;;;;-1.78;100.00;93105.81;4933473;29;20666;-80
2023/01/18 07:23:58;;;;;;;21.17;13.73;;;;;;;-1.76;100.00;93114.16;4917177;29;20193;-80
2023/01/18 07:26:24;;;;;;;17.13;13.10;;;;;;;-1.73;100.00;93121.50;4924993;29;20264;-80
2023/01/18 07:28:49;;;;;;;20.23;13.47;;;;;;;-1.72;99.83;93118.81;4912907;29;20204;-80
2023/01/18 07:31:16;;;;;;;16.00;11.40;;;;;;;-1.71;100.00;93125.50;4916861;29;20222;-80
2023/01/18 07:33:41;;;;;;;19.97;11.87;;;;;;;-1.77;100.00;93125.22;4933059;29;20197;-79
2023/01/18 07:36:09;;;;;;;16.97;10.97;;;;;;;-1.74;100.00;93132.63;4925158;29;20250;-80
2023/01/18 07:38:35;;;;;;;21.50;12.63;;;;;;;-1.76;99.91;93135.31;4917275;29;20221;-81
2023/01/18 07:41:13;;;;;;;17.30;12.50;;;;;;;-1.59;98.88;93143.19;4910294;29;20594;-80
2023/01/18 07:43:38;;;;;;;19.87;12.83;;;;;;;-1.74;100.00;93141.06;4929328;29;20193;-80
2023/01/18 07:46:05;;;;;;;24.43;16.17;;;;;;;-1.64;99.61;93152.97;4930075;29;20701;-79
2023/01/18 07:48:31;;;;;;;26.10;17.20;;;;;;;-1.64;99.05;93151.22;4921338;29;20553;-80
2023/01/18 07:51:02;;;;;;;28.93;18.03;;;;;;;-1.71;99.30;93162.88;4928495;29;20267;-80
2023/01/18 07:53:28;;;;;;;28.43;17.07;;;;;;;-1.57;99.24;93156.59;4930838;29;20260;-80
2023/01/18 07:55:57;;;;;;;21.07;15.57;;;;;;;-1.48;98.89;93171.06;4919205;29;20197;-80
2023/01/18 07:58:23;;;;;;;18.93;13.93;;;;;;;-1.34;97.77;93167.31;4920272;29;20185;-80
2023/01/18 08:00:48;;;;;;;19.50;14.60;;;;;;;-1.40;97.66;93170.41;4922128;29;20227;-80
2023/01/18 08:03:15;;;;;;;21.70;16.07;;;;;;;-1.34;97.72;93172.41;4926661;29;20197;-81
2023/01/18 08:05:41;;;;;;;18.33;10.40;;;;;;;-1.31;98.11;93182.34;4916657;29;20208;-80
2023/01/18 08:08:11;;;;;;;19.97;12.60;;;;;;;-1.30;98.19;93189.03;4932506;29;20282;-81
2023/01/18 08:10:37;;;;;;;16.13;11.33;;;;;;;-1.30;97.83;93194.13;4921525;29;20780;-80
2023/01/18 08:13:03;;;;;;;14.67;10.20;;;;;;;-1.38;98.31;93188.91;4922371;29;20197;-79
2023/01/18 08:15:29;;;;;;;22.10;10.47;;;;;;;-1.40;99.17;93196.66;4925236;29;20190;-79
2023/01/18 08:17:54;;;;;;;17.60;10.67;;;;;;;-1.51;99.89;93197.56;4926125;29;20680;-79
2023/01/18 08:20:20;;;;;;;15.93;8.87;;;;;;;-1.49;99.09;93195.72;4920954;29;20213;-80
2023/01/18 08:22:46;;;;;;;12.57;8.93;;;;;;;-1.59;99.46;93200.00;4914856;29;20189;-80
2023/01/18 08:25:11;;;;;;;13.17;8.83;;;;;;;-1.60;98.64;93211.09;4937341;29;20248;-79
2023/01/18 08:27:37;;;;;;;12.10;8.67;;;;;;;-1.54;98.69;93213.13;4940642;28;20202;-82
2023/01/18 08:30:04;;;;;;;14.80;11.13;;;;;;;-1.46;98.58;93220.91;4932806;29;20675;-79
2023/01/18 08:32:29;;;;;;;13.90;10.00;;;;;;;-1.27;97.59;93226.94;4931442;29;20327;-80
2023/01/18 08:34:55;;;;;;;13.77;8.40;;;;;;;-1.39;97.34;93235.66;4924105;29;20211;-82
2023/01/18 08:37:22;;;;;;;10.40;8.93;;;;;;;-1.33;97.51;93235.09;4915799;29;20842;-82
2023/01/18 08:39:48;;;;;;;11.93;9.50;;;;;;;-1.43;96.99;93246.09;4919015;29;20217;-82
2023/01/18 08:42:13;;;;;;;13.27;10.43;;;;;;;-1.34;96.90;93248.78;4931559;29;20249;-81
2023/01/18 08:44:38;;;;;;;12.77;9.23;;;;;;;-1.20;96.12;93248.41;4919921;29;20201;-81
2023/01/18 08:47:03;;;;;;;14.80;10.37;;;;;;;-1.08;95.80;93257.50;4929925;29;20209;-81
2023/01/18 08:49:31;;;;;;;15.87;10.70;;;;;;;-1.03;95.41;93252.03;4923655;29;20216;-82
2023/01/18 08:51:57;;;;;;;13.97;9.77;;;;;;;-0.93;95.23;93263.81;4927761;29;20185;-80
2023/01/18 08:54:23;;;;;;;17.13;11.17;;;;;;;-0.92;95.27;93267.97;4930015;29;20258;-82
2023/01/18 08:56:48;;;;;;;15.17;10.30;;;;;;;-0.64;94.04;93278.28;4919751;29;20218;-82
2023/01/18 08:59:13;;;;;;;13.23;9.20;;;;;;;-0.67;93.34;93278.56;4937687;29;20220;-80
2023/01/18 09:01:39;;;;;;;12.37;9.00;;;;;;;-0.35;92.29;93285.91;4940083;28;20205;-80
2023/01/18 09:04:04;;;;;;;11.73;8.50;;;;;;;-0.47;91.55;93289.53;4935464;29;20212;-81
2023/01/18 09:06:30;;;;;;;11.87;8.30;;;;;;;-0.68;92.13;93299.91;4920480;29;20262;-81
2023/01/18 09:08:56;;;;;;;8.47;6.33;;;;;;;-0.73;91.49;93300.28;4924214;29;20236;-81
2023/01/18 09:11:21;;;;;;;12.80;7.07;;;;;;;-0.59;91.35;93304.19;4922432;29;20190;-82
2023/01/18 09:13:47;;;;;;;10.83;7.97;;;;;;;-0.55;90.38;93302.16;4943268;29;20201;-82
2023/01/18 09:16:13;;;;;;;8.57;7.47;;;;;;;-0.56;90.93;93314.09;4938237;28;20184;-82
2023/01/18 09:18:38;;;;;;;9.83;7.27;;;;;;;-0.53;90.15;93326.59;4940271;29;20203;-82
2023/01/18 09:21:08;;;;;;;10.70;7.80;;;;;;;-0.42;90.12;93323.91;4938576;29;20197;-81
2023/01/18 09:23:35;;;;;;;10.73;7.43;;;;;;;-0.56;90.49;93334.50;4906514;29;20201;-80
2023/01/18 09:26:07;;;;;;;12.47;9.10;;;;;;;-0.28;90.30;93336.22;4916629;29;20652;-79
2023/01/18 09:28:33;;;;;;;7.93;6.63;;;;;;;-0.22;89.70;93346.81;4920780;29;20202;-82
2023/01/18 09:31:01;;;;;;;10.33;8.07;;;;;;;-0.28;89.42;93343.88;4927890;29;20562;-82
2023/01/18 09:33:26;;;;;;;12.73;7.33;;;;;;;-0.22;88.77;93352.72;4912013;29;20208;-81
2023/01/18 09:35:54;;;;;;;9.13;7.03;;;;;;;-0.59;90.69;93357.72;4930770;29;20202;-81
2023/01/18 09:38:20;;;;;;;12.77;8.47;;;;;;;-0.47;89.64;93371.94;4933273;29;20545;-82
2023/01/18 09:40:46;;;;;;;14.37;10.83;;;;;;;-0.50;90.05;93361.22;4925098;29;20217;-81
2023/01/18 09:43:29;;;;;;;18.13;13.57;;;;;;;-0.59;91.18;93362.81;4926894;29;20193;-81
2023/01/18 09:45:55;;;;;;;8.90;6.90;;;;;;;-0.63;91.05;93375.00;4929767;29;20715;-81
2023/01/18 09:48:41;;;;;;;10.93;7.50;;;;;;;-0.46;90.44;93373.53;4910698;29;20256;-82
2023/01/18 09:51:19;;;;;;;12.97;7.67;;;;;;;-0.46;90.82;93378.66;4935091;29;20681;-81
2023/01/18 09:54:04;;;;;;;13.03;11.60;;;;;;;-0.51;91.06;93387.66;4908830;29;20284;-80
2023/01/18 09:56:38;;;;;;;47.27;34.97;;;;;;;-0.65;91.54;93391.38;4931714;29;20218;-82
2023/01/18 09:59:26;;;;;;;53.63;33.47;;;;;;;-0.40;90.25;93398.50;4941610;29;20213;-82
2023/01/18 10:01:51;;;;;;;28.17;20.97;;;;;;;-0.57;89.76;93399.97;4946281;28;20216;-80
2023/01/18 10:04:23;;;;;;;14.80;13.50;;;;;;;-0.31;89.35;93402.81;4938805;29;20271;-81
2023/01/18 10:06:53;;;;;;;9.23;6.20;;;;;;;-0.19;87.95;93405.22;4923679;29;20651;-82
2023/01/18 10:09:21;;;;;;;9.30;5.80;;;;;;;-0.04;87.64;93406.41;4926072;29;20226;-80
2023/01/18 10:11:58;;;;;;;7.47;5.10;;;;;;;-0.17;86.99;93413.56;4940741;28;20213;-80
2023/01/18 10:14:35;;;;;;;8.07;5.33;;;;;;;0.05;86.79;93422.66;4934224;29;20198;-81
2023/01/18 10:17:03;;;;;;;9.73;4.87;;;;;;;0.11;85.79;93427.22;4945117;28;20290;-82
2023/01/18 10:19:30;;;;;;;8.90;4.80;;;;;;;0.12;84.79;93414.31;4918572;29;20214;-82
2023/01/18 10:22:07;;;;;;;7.40;4.97;;;;;;;0.05;85.58;93425.22;4917260;29;20257;-81
2023/01/18 10:24:54;;;;;;;7.83;5.20;;;;;;;0.17;85.31;93419.81;4916365;29;20197;-80
2023/01/18 10:27:30;;;;;;;7.97;4.27;;;;;;;0.20;84.75;93424.66;4929144;29;20301;-81
2023/01/18 10:30:10;;;;;;;6.37;4.50;;;;;;;0.27;84.18;93430.84;4917025;29;20229;-80
2023/01/18 10:32:37;;;;;;;7.50;4.87;;;;;;;0.59;84.13;93429.66;4941375;28;20205;-82
2023/01/18 10:35:12;;;;;;;8.40;4.97;;;;;;;0.63;84.23;93428.44;4927633;29;20201;-81
2023/01/18 10:37:44;;;;;;;6.87;4.03;;;;;;;0.98;83.27;93424.41;4929419;29;20197;-81
2023/01/18 10:40:12;;;;;;;7.33;4.80;;;;;;;1.22;82.13;93427.22;4919239;29;20210;-80
2023/01/18 10:42:45;;;;;;;7.00;4.27;;;;;;;1.37;80.43;93436.03;4912402;29;20686;-79
2023/01/18 10:45:18;;;;;;;6.67;4.07;;;;;;;1.51;78.34;93433.94;4942711;29;20289;-80
2023/01/18 10:47:45;;;;;;;5.67;3.40;;;;;;;1.61;78.13;93447.47;4941390;29;20186;-78
2023/01/18 10:50:19;;;;;;;4.13;3.40;;;;;;;1.84;76.04;93453.75;4909538;29;20207;-79
2023/01/18 10:52:44;;;;;;;4.00;3.60;;;;;;;1.72;77.20;93454.94;4933158;29;20193;-79
2023/01/18 10:55:17;;;;;;;8.30;4.27;;;;;;;1.72;76.98;93454.94;4924399;29;20562;-79
2023/01/18 10:57:46;;;;;;;4.83;3.10;;;;;;;1.54;76.34;93454.91;4916402;29;20258;-79
2023/01/18 11:00:26;;;;;;;7.63;3.53;;;;;;;1.67;76.54;93454.56;4915745;29;20251;-81
2023/01/18 11:02:53;;;;;;;7.47;3.93;;;;;;;1.32;77.99;93451.00;4931625;29;20194;-81
2023/01/18 11:05:19;;;;;;;8.73;3.50;;;;;;;1.20;78.65;93452.16;4933538;29;20217;-80
2023/01/18 11:07:44;;;;;;;5.33;3.83;;;;;;;0.96;78.49;93451.84;4928162;29;20218;-79
2023/01/18 11:10:26;;;;;;;4.50;3.40;;;;;;;0.80;79.55;93460.94;4943990;29;20238;-81
2023/01/18 11:12:51;;;;;;;6.43;3.77;;;;;;;0.96;78.72;93462.88;4930288;29;20272;-80
2023/01/18 11:15:17;;;;;;;7.53;3.67;;;;;;;1.30;77.62;93462.31;4917989;29;20277;-80
2023/01/18 11:17:49;;;;;;;6.83;4.43;;;;;;;1.08;77.62;93466.06;4924744;29;20194;-80
2023/01/18 11:20:27;;;;;;;6.50;4.33;;;;;;;1.09;78.50;93465.13;4931426;29;20231;-80
2023/01/18 11:22:59;;;;;;;4.70;3.83;;;;;;;1.04;78.25;93474.94;4929955;29;20197;-78
2023/01/18 11:25:25;;;;;;;13.77;7.87;;;;;;;1.12;78.39;93480.97;4939513;29;20313;-81
2023/01/18 11:27:51;;;;;;;22.13;9.40;;;;;;;1.03;77.57;93475.91;4930395;29;20206;-80
2023/01/18 11:30:22;;;;;;;8.90;4.53;;;;;;;1.17;76.67;93483.13;4930601;29;20257;-81
2023/01/18 11:32:47;;;;;;;6.07;4.50;;;;;;;1.39;74.87;93484.47;4941003;29;20341;-80
2023/01/18 11:35:33;;;;;;;7.63;6.00;;;;;;;1.80;75.56;93484.94;4942030;29;20676;-81
2023/01/18 11:38:00;;;;;;;12.03;5.17;;;;;;;1.77;75.41;93496.25;4903405;29;20194;-81
2023/01/18 11:40:28;;;;;;;4.10;3.70;;;;;;;1.39;75.54;93494.72;4925307;29;20741;-81
2023/01/18 11:43:13;;;;;;;6.20;4.50;;;;;;;1.72;75.36;93500.19;4941801;29;20200;-81
2023/01/18 11:45:53;;;;;;;6.47;4.40;;;;;;;1.82;75.00;93496.63;4917891;29;20727;-81
2023/01/18 11:48:31;;;;;;;7.00;4.97;;;;;;;1.94;74.69;93497.19;4911076;29;20220;-80
2023/01/18 11:51:06;;;;;;;8.73;6.33;;;;;;;2.02;74.73;93504.97;4940251;29;20218;-81
2023/01/18 11:53:57;;;;;;;11.97;8.03;;;;;;;2.19;73.86;93505.91;4905544;29;20277;-80
2023/01/18 11:56:28;;;;;;;11.23;7.27;;;;;;;1.85;73.57;93505.75;4931019;29;20258;-79
2023/01/18 11:58:53;;;;;;;22.53;13.73;;;;;;;2.15;72.76;93504.63;4932135;29;20217;-81